sensor_id;sensor_type;location;lat;lon;timestamp;P1;durP1;ratioP1;P2;durP2;ratioP2
5587;SDS011;2816;49.778;9.986;2023-02-01T00:01:09;4.03;;;3.73;;
5587;SDS011;2816;49.778;9.986;2023-02-01T00:03:36;4.13;;;3.73;;
5587;SDS011;2816;49.778;9.986;2023-02-01T00:06:04;4.60;;;3.63;;
5587;SDS011;2816;49.778;9.986;2023-02-01T00:08:31;5.13;;;4.53;;
5587;SDS011;2816;49.778;9.986;2023-02-01T00:10:59;7.40;;;4.30;;
5587;SDS011;2816;49.778;9.986;2023-02-01T00:13:28;4.27;;;3.87;;
5587;SDS011;2816;49.778;9.986;2023-02-01T00:16:01;4.07;;;3.67;;
5587;SDS011;2816;49.778;9.986;2023-02-01T00:18:29;11.00;;;4.90;;
5587;SDS011;2816;49.778;9.986;2023-02-01T00:20:56;5.83;;;3.90;;
5587;SDS011;2816;49.778;9.986;2023-02-01T00:23:24;6.13;;;4.77;;
5587;SDS011;2816;49.778;9.986;2023-02-01T00:25:52;4.73;;;4.13;;
5587;SDS011;2816;49.778;9.986;2023-02-01T00:28:19;6.70;;;5.10;;
5587;SDS011;2816;49.778;9.986;2023-02-01T00:30:46;4.87;;;4.47;;
5587;SDS011;2816;49.778;9.986;2023-02-01T00:33:13;6.80;;;5.00;;
5587;SDS011;2816;49.778;9.986;2023-02-01T00:35:40;4.70;;;3.37;;
5587;SDS011;2816;49.778;9.986;2023-02-01T00:38:07;6.77;;;3.90;;
5587;SDS011;2816;49.778;9.986;2023-02-01T00:40:36;4.87;;;3.83;;
5587;SDS011;2816;49.778;9.986;2023-02-01T00:43:03;6.33;;;4.10;;
5587;SDS011;2816;49.778;9.986;2023-02-01T00:45:30;4.63;;;3.67;;
5587;SDS011;2816;49.778;9.986;2023-02-01T00:47:57;6.97;;;4.07;;
5587;SDS011;2816;49.778;9.986;2023-02-01T00:50:23;5.60;;;4.63;;
5587;SDS011;2816;49.778;9.986;2023-02-01T00:52:50;5.60;;;4.70;;
5587;SDS011;2816;49.778;9.986;2023-02-01T00:55:17;6.90;;;3.80;;
5587;SDS011;2816;49.778;9.986;2023-02-01T00:57:46;4.63;;;4.23;;
5587;SDS011;2816;49.778;9.986;2023-02-01T01:00:13;4.50;;;4.10;;
5587;SDS011;2816;49.778;9.986;2023-02-01T01:02:41;5.03;;;3.40;;
5587;SDS011;2816;49.778;9.986;2023-02-01T01:05:08;5.87;;;4.80;;
5587;SDS011;2816;49.778;9.986;2023-02-01T01:07:35;4.37;;;3.87;;
5587;SDS011;2816;49.778;9.986;2023-02-01T01:10:02;4.33;;;3.73;;
5587;SDS011;2816;49.778;9.986;2023-02-01T01:12:29;11.20;;;4.00;;
5587;SDS011;2816;49.778;9.986;2023-02-01T01:14:58;5.00;;;4.40;;
5587;SDS011;2816;49.778;9.986;2023-02-01T01:17:25;4.03;;;3.60;;
5587;SDS011;2816;49.778;9.986;2023-02-01T01:19:52;6.00;;;4.30;;
5587;SDS011;2816;49.778;9.986;2023-02-01T01:22:19;4.30;;;3.90;;
5587;SDS011;2816;49.778;9.986;2023-02-01T01:24:46;6.77;;;4.53;;
5587;SDS011;2816;49.778;9.986;2023-02-01T01:27:13;6.63;;;5.87;;
5587;SDS011;2816;49.778;9.986;2023-02-01T01:29:40;7.13;;;4.17;;
5587;SDS011;2816;49.778;9.986;2023-02-01T01:32:09;5.60;;;4.17;;
5587;SDS011;2816;49.778;9.986;2023-02-01T01:34:36;4.63;;;4.23;;
5587;SDS011;2816;49.778;9.986;2023-02-01T01:37:03;7.57;;;4.50;;
5587;SDS011;2816;49.778;9.986;2023-02-01T01:39:30;6.90;;;4.50;;
5587;SDS011;2816;49.778;9.986;2023-02-01T01:41:57;4.33;;;3.93;;
5587;SDS011;2816;49.778;9.986;2023-02-01T01:47:24;9.00;;;4.20;;
5587;SDS011;2816;49.778;9.986;2023-02-01T01:49:53;5.60;;;4.30;;
5587;SDS011;2816;49.778;9.986;2023-02-01T01:52:20;5.57;;;4.20;;
5587;SDS011;2816;49.778;9.986;2023-02-01T01:54:48;8.23;;;4.27;;
5587;SDS011;2816;49.778;9.986;2023-02-01T01:57:19;6.73;;;4.53;;
5587;SDS011;2816;49.778;9.986;2023-02-01T01:59:50;5.30;;;4.23;;
5587;SDS011;2816;49.778;9.986;2023-02-01T02:02:21;6.27;;;3.80;;
5587;SDS011;2816;49.778;9.986;2023-02-01T02:04:51;4.40;;;4.00;;
5587;SDS011;2816;49.778;9.986;2023-02-01T02:07:19;5.57;;;4.23;;
5587;SDS011;2816;49.778;9.986;2023-02-01T02:09:49;3.43;;;3.10;;
5587;SDS011;2816;49.778;9.986;2023-02-01T02:12:17;4.93;;;3.43;;
5587;SDS011;2816;49.778;9.986;2023-02-01T02:14:44;5.50;;;3.77;;
5587;SDS011;2816;49.778;9.986;2023-02-01T02:17:18;3.83;;;3.10;;
5587;SDS011;2816;49.778;9.986;2023-02-01T02:20:14;3.30;;;3.00;;
5587;SDS011;2816;49.778;9.986;2023-02-01T02:23:02;10.53;;;3.00;;
5587;SDS011;2816;49.778;9.986;2023-02-01T02:26:03;3.50;;;3.20;;
5587;SDS011;2816;49.778;9.986;2023-02-01T02:29:13;4.00;;;2.80;;
5587;SDS011;2816;49.778;9.986;2023-02-01T02:32:10;5.13;;;2.33;;
5587;SDS011;2816;49.778;9.986;2023-02-01T02:34:53;3.27;;;2.23;;
5587;SDS011;2816;49.778;9.986;2023-02-01T02:37:25;2.80;;;2.20;;
5587;SDS011;2816;49.778;9.986;2023-02-01T02:39:59;4.97;;;2.33;;
5587;SDS011;2816;49.778;9.986;2023-02-01T02:42:34;3.10;;;2.63;;
5587;SDS011;2816;49.778;9.986;2023-02-01T02:45:23;2.57;;;2.43;;
5587;SDS011;2816;49.778;9.986;2023-02-01T02:48:15;2.80;;;2.50;;
5587;SDS011;2816;49.778;9.986;2023-02-01T02:50:49;3.47;;;2.70;;
5587;SDS011;2816;49.778;9.986;2023-02-01T02:53:38;3.47;;;2.90;;
5587;SDS011;2816;49.778;9.986;2023-02-01T02:56:32;2.43;;;2.30;;
5587;SDS011;2816;49.778;9.986;2023-02-01T02:59:19;5.40;;;3.13;;
5587;SDS011;2816;49.778;9.986;2023-02-01T03:02:08;6.43;;;3.03;;
5587;SDS011;2816;49.778;9.986;2023-02-01T03:04:53;3.50;;;2.50;;
5587;SDS011;2816;49.778;9.986;2023-02-01T03:10:20;5.13;;;3.90;;
5587;SDS011;2816;49.778;9.986;2023-02-01T03:12:52;4.80;;;3.70;;
5587;SDS011;2816;49.778;9.986;2023-02-01T03:15:23;4.67;;;4.23;;
5587;SDS011;2816;49.778;9.986;2023-02-01T03:17:58;7.70;;;4.10;;
5587;SDS011;2816;49.778;9.986;2023-02-01T03:20:29;5.30;;;4.23;;
5587;SDS011;2816;49.778;9.986;2023-02-01T03:22:59;9.80;;;5.13;;
5587;SDS011;2816;49.778;9.986;2023-02-01T03:25:27;5.27;;;4.37;;
5587;SDS011;2816;49.778;9.986;2023-02-01T03:27:57;4.97;;;4.40;;
5587;SDS011;2816;49.778;9.986;2023-02-01T03:30:30;9.83;;;4.30;;
5587;SDS011;2816;49.778;9.986;2023-02-01T03:33:00;4.73;;;4.17;;
5587;SDS011;2816;49.778;9.986;2023-02-01T03:35:30;4.30;;;3.90;;
5587;SDS011;2816;49.778;9.986;2023-02-01T03:38:03;6.97;;;4.23;;
5587;SDS011;2816;49.778;9.986;2023-02-01T03:40:39;5.67;;;4.40;;
5587;SDS011;2816;49.778;9.986;2023-02-01T03:43:07;3.90;;;3.33;;
5587;SDS011;2816;49.778;9.986;2023-02-01T03:45:41;5.10;;;3.63;;
5587;SDS011;2816;49.778;9.986;2023-02-01T03:48:14;4.30;;;3.50;;
5587;SDS011;2816;49.778;9.986;2023-02-01T03:50:44;4.90;;;3.87;;
5587;SDS011;2816;49.778;9.986;2023-02-01T03:53:17;4.30;;;3.67;;
5587;SDS011;2816;49.778;9.986;2023-02-01T03:55:48;6.00;;;4.10;;
5587;SDS011;2816;49.778;9.986;2023-02-01T03:58:18;4.07;;;3.77;;
5587;SDS011;2816;49.778;9.986;2023-02-01T04:00:46;4.50;;;4.10;;
5587;SDS011;2816;49.778;9.986;2023-02-01T04:03:17;3.90;;;3.50;;
5587;SDS011;2816;49.778;9.986;2023-02-01T04:05:44;3.27;;;2.90;;
5587;SDS011;2816;49.778;9.986;2023-02-01T04:08:11;4.70;;;3.50;;
5587;SDS011;2816;49.778;9.986;2023-02-01T04:10:40;3.67;;;3.30;;
5587;SDS011;2816;49.778;9.986;2023-02-01T04:13:06;3.93;;;3.10;;
5587;SDS011;2816;49.778;9.986;2023-02-01T04:15:33;7.10;;;2.90;;
5587;SDS011;2816;49.778;9.986;2023-02-01T04:18:00;3.50;;;2.53;;
5587;SDS011;2816;49.778;9.986;2023-02-01T04:20:27;5.93;;;2.77;;
5587;SDS011;2816;49.778;9.986;2023-02-01T04:22:54;8.80;;;2.40;;
5587;SDS011;2816;49.778;9.986;2023-02-01T04:25:23;3.37;;;2.33;;
5587;SDS011;2816;49.778;9.986;2023-02-01T04:27:51;8.67;;;2.30;;
5587;SDS011;2816;49.778;9.986;2023-02-01T04:30:18;7.70;;;2.90;;
5587;SDS011;2816;49.778;9.986;2023-02-01T04:32:45;9.80;;;2.43;;
5587;SDS011;2816;49.778;9.986;2023-02-01T04:35:12;13.10;;;3.17;;
5587;SDS011;2816;49.778;9.986;2023-02-01T04:37:39;5.13;;;2.30;;
5587;SDS011;2816;49.778;9.986;2023-02-01T04:40:06;5.57;;;2.27;;
5587;SDS011;2816;49.778;9.986;2023-02-01T04:42:34;6.53;;;2.20;;
5587;SDS011;2816;49.778;9.986;2023-02-01T04:45:02;11.77;;;2.40;;
5587;SDS011;2816;49.778;9.986;2023-02-01T04:47:30;6.33;;;2.33;;
5587;SDS011;2816;49.778;9.986;2023-02-01T04:49:57;7.30;;;2.30;;
5587;SDS011;2816;49.778;9.986;2023-02-01T04:52:24;9.30;;;2.80;;
5587;SDS011;2816;49.778;9.986;2023-02-01T04:54:52;8.57;;;2.47;;
5587;SDS011;2816;49.778;9.986;2023-02-01T04:57:22;4.53;;;2.13;;
5587;SDS011;2816;49.778;9.986;2023-02-01T04:59:49;5.10;;;2.27;;
5587;SDS011;2816;49.778;9.986;2023-02-01T05:02:17;4.57;;;2.03;;
5587;SDS011;2816;49.778;9.986;2023-02-01T05:04:44;7.40;;;1.90;;
5587;SDS011;2816;49.778;9.986;2023-02-01T05:07:11;9.13;;;2.30;;
5587;SDS011;2816;49.778;9.986;2023-02-01T05:09:38;5.87;;;2.10;;
5587;SDS011;2816;49.778;9.986;2023-02-01T05:12:05;24.10;;;8.30;;
5587;SDS011;2816;49.778;9.986;2023-02-01T05:14:50;4.23;;;1.70;;
5587;SDS011;2816;49.778;9.986;2023-02-01T05:17:19;3.10;;;1.97;;
5587;SDS011;2816;49.778;9.986;2023-02-01T05:19:46;4.50;;;1.60;;
5587;SDS011;2816;49.778;9.986;2023-02-01T05:22:13;2.50;;;1.10;;
5587;SDS011;2816;49.778;9.986;2023-02-01T05:24:40;3.63;;;1.77;;
5587;SDS011;2816;49.778;9.986;2023-02-01T05:27:07;1.63;;;1.20;;
5587;SDS011;2816;49.778;9.986;2023-02-01T05:29:34;1.53;;;1.20;;
5587;SDS011;2816;49.778;9.986;2023-02-01T05:32:01;3.50;;;1.50;;
5587;SDS011;2816;49.778;9.986;2023-02-01T05:34:29;5.50;;;1.60;;
5587;SDS011;2816;49.778;9.986;2023-02-01T05:36:56;0.87;;;0.87;;
5587;SDS011;2816;49.778;9.986;2023-02-01T05:39:23;1.90;;;1.13;;
5587;SDS011;2816;49.778;9.986;2023-02-01T05:41:50;2.83;;;1.20;;
5587;SDS011;2816;49.778;9.986;2023-02-01T05:44:17;1.20;;;1.10;;
5587;SDS011;2816;49.778;9.986;2023-02-01T05:46:44;1.97;;;1.20;;
5587;SDS011;2816;49.778;9.986;2023-02-01T05:49:11;1.10;;;1.00;;
5587;SDS011;2816;49.778;9.986;2023-02-01T05:51:39;3.27;;;1.13;;
5587;SDS011;2816;49.778;9.986;2023-02-01T05:54:07;1.30;;;1.20;;
5587;SDS011;2816;49.778;9.986;2023-02-01T05:56:34;1.60;;;1.17;;
5587;SDS011;2816;49.778;9.986;2023-02-01T05:59:01;1.10;;;1.00;;
5587;SDS011;2816;49.778;9.986;2023-02-01T06:01:28;1.00;;;1.00;;
5587;SDS011;2816;49.778;9.986;2023-02-01T06:03:56;2.03;;;1.20;;
5587;SDS011;2816;49.778;9.986;2023-02-01T06:06:23;1.33;;;1.23;;
5587;SDS011;2816;49.778;9.986;2023-02-01T06:08:51;1.37;;;1.27;;
5587;SDS011;2816;49.778;9.986;2023-02-01T06:11:18;2.30;;;1.27;;
5587;SDS011;2816;49.778;9.986;2023-02-01T06:13:45;2.50;;;1.70;;
5587;SDS011;2816;49.778;9.986;2023-02-01T06:16:12;2.80;;;1.50;;
5587;SDS011;2816;49.778;9.986;2023-02-01T06:18:40;6.53;;;1.53;;
5587;SDS011;2816;49.778;9.986;2023-02-01T06:21:08;1.57;;;1.40;;
5587;SDS011;2816;49.778;9.986;2023-02-01T06:23:35;1.80;;;1.40;;
5587;SDS011;2816;49.778;9.986;2023-02-01T06:26:04;1.60;;;1.50;;
5587;SDS011;2816;49.778;9.986;2023-02-01T06:28:32;1.80;;;1.50;;
5587;SDS011;2816;49.778;9.986;2023-02-01T06:31:02;1.93;;;1.73;;
5587;SDS011;2816;49.778;9.986;2023-02-01T06:33:31;3.77;;;1.67;;
5587;SDS011;2816;49.778;9.986;2023-02-01T06:35:58;2.70;;;1.90;;
5587;SDS011;2816;49.778;9.986;2023-02-01T06:38:27;2.97;;;1.93;;
5587;SDS011;2816;49.778;9.986;2023-02-01T06:40:54;4.77;;;1.90;;
5587;SDS011;2816;49.778;9.986;2023-02-01T06:43:24;3.43;;;1.63;;
5587;SDS011;2816;49.778;9.986;2023-02-01T06:45:52;1.83;;;1.60;;
5587;SDS011;2816;49.778;9.986;2023-02-01T06:48:20;4.43;;;2.60;;
5587;SDS011;2816;49.778;9.986;2023-02-01T06:50:46;10.00;;;2.53;;
5587;SDS011;2816;49.778;9.986;2023-02-01T06:53:13;8.43;;;2.30;;
5587;SDS011;2816;49.778;9.986;2023-02-01T06:55:40;10.17;;;3.00;;
5587;SDS011;2816;49.778;9.986;2023-02-01T06:58:07;15.77;;;3.47;;
5587;SDS011;2816;49.778;9.986;2023-02-01T07:00:35;4.50;;;2.53;;
5587;SDS011;2816;49.778;9.986;2023-02-01T07:03:03;7.80;;;2.80;;
5587;SDS011;2816;49.778;9.986;2023-02-01T07:05:30;8.50;;;3.60;;
5587;SDS011;2816;49.778;9.986;2023-02-01T07:07:57;5.27;;;2.57;;
5587;SDS011;2816;49.778;9.986;2023-02-01T07:10:23;10.53;;;3.10;;
5587;SDS011;2816;49.778;9.986;2023-02-01T07:12:50;4.80;;;2.97;;
5587;SDS011;2816;49.778;9.986;2023-02-01T07:15:17;9.10;;;3.30;;
5587;SDS011;2816;49.778;9.986;2023-02-01T07:17:45;13.10;;;3.20;;
5587;SDS011;2816;49.778;9.986;2023-02-01T07:20:14;5.93;;;2.60;;
5587;SDS011;2816;49.778;9.986;2023-02-01T07:22:41;5.67;;;2.87;;
5587;SDS011;2816;49.778;9.986;2023-02-01T07:25:08;3.80;;;2.43;;
5587;SDS011;2816;49.778;9.986;2023-02-01T07:27:35;8.83;;;4.03;;
5587;SDS011;2816;49.778;9.986;2023-02-01T07:30:02;9.97;;;3.23;;
5587;SDS011;2816;49.778;9.986;2023-02-01T07:32:30;5.40;;;2.70;;
5587;SDS011;2816;49.778;9.986;2023-02-01T07:34:58;10.33;;;3.23;;
5587;SDS011;2816;49.778;9.986;2023-02-01T07:37:25;8.67;;;3.20;;
5587;SDS011;2816;49.778;9.986;2023-02-01T07:39:52;7.70;;;3.20;;
5587;SDS011;2816;49.778;9.986;2023-02-01T07:42:19;12.47;;;3.43;;
5587;SDS011;2816;49.778;9.986;2023-02-01T07:44:46;8.80;;;4.10;;
5587;SDS011;2816;49.778;9.986;2023-02-01T07:47:13;9.90;;;3.00;;
5587;SDS011;2816;49.778;9.986;2023-02-01T07:49:40;4.50;;;2.73;;
5587;SDS011;2816;49.778;9.986;2023-02-01T07:52:08;4.17;;;3.20;;
5587;SDS011;2816;49.778;9.986;2023-02-01T07:54:38;10.00;;;3.50;;
5587;SDS011;2816;49.778;9.986;2023-02-01T07:57:04;6.20;;;3.20;;
5587;SDS011;2816;49.778;9.986;2023-02-01T07:59:33;7.93;;;3.30;;
5587;SDS011;2816;49.778;9.986;2023-02-01T08:02:00;5.13;;;3.10;;
5587;SDS011;2816;49.778;9.986;2023-02-01T08:04:26;8.00;;;3.33;;
5587;SDS011;2816;49.778;9.986;2023-02-01T08:06:54;7.23;;;3.53;;
5587;SDS011;2816;49.778;9.986;2023-02-01T08:09:22;9.67;;;3.17;;
5587;SDS011;2816;49.778;9.986;2023-02-01T08:11:49;15.23;;;3.23;;
5587;SDS011;2816;49.778;9.986;2023-02-01T08:14:16;4.40;;;2.70;;
5587;SDS011;2816;49.778;9.986;2023-02-01T08:16:43;14.80;;;3.07;;
5587;SDS011;2816;49.778;9.986;2023-02-01T08:19:10;7.80;;;2.90;;
5587;SDS011;2816;49.778;9.986;2023-02-01T08:21:37;6.70;;;2.80;;
5587;SDS011;2816;49.778;9.986;2023-02-01T08:24:05;6.17;;;3.20;;
5587;SDS011;2816;49.778;9.986;2023-02-01T08:26:35;6.27;;;2.97;;
5587;SDS011;2816;49.778;9.986;2023-02-01T08:29:03;5.60;;;2.63;;
5587;SDS011;2816;49.778;9.986;2023-02-01T08:31:30;3.90;;;2.20;;
5587;SDS011;2816;49.778;9.986;2023-02-01T08:33:58;10.20;;;3.20;;
5587;SDS011;2816;49.778;9.986;2023-02-01T08:36:27;7.53;;;3.30;;
5587;SDS011;2816;49.778;9.986;2023-02-01T08:38:55;8.93;;;3.07;;
5587;SDS011;2816;49.778;9.986;2023-02-01T08:41:22;4.80;;;2.63;;
5587;SDS011;2816;49.778;9.986;2023-02-01T08:43:52;34.37;;;3.97;;
5587;SDS011;2816;49.778;9.986;2023-02-01T08:46:20;7.73;;;2.90;;
5587;SDS011;2816;49.778;9.986;2023-02-01T08:48:47;6.07;;;4.03;;
5587;SDS011;2816;49.778;9.986;2023-02-01T08:51:16;11.60;;;3.80;;
5587;SDS011;2816;49.778;9.986;2023-02-01T08:53:45;6.03;;;2.23;;
5587;SDS011;2816;49.778;9.986;2023-02-01T08:56:13;9.40;;;2.90;;
5587;SDS011;2816;49.778;9.986;2023-02-01T08:58:41;2.67;;;1.80;;
5587;SDS011;2816;49.778;9.986;2023-02-01T09:01:10;7.10;;;2.30;;
5587;SDS011;2816;49.778;9.986;2023-02-01T09:03:41;7.97;;;2.90;;
5587;SDS011;2816;49.778;9.986;2023-02-01T09:06:09;13.50;;;3.13;;
5587;SDS011;2816;49.778;9.986;2023-02-01T09:08:37;10.43;;;3.23;;
5587;SDS011;2816;49.778;9.986;2023-02-01T09:11:06;11.20;;;2.90;;
5587;SDS011;2816;49.778;9.986;2023-02-01T09:13:36;9.83;;;2.60;;
5587;SDS011;2816;49.778;9.986;2023-02-01T09:16:03;13.90;;;2.70;;
5587;SDS011;2816;49.778;9.986;2023-02-01T09:18:32;9.43;;;3.50;;
5587;SDS011;2816;49.778;9.986;2023-02-01T09:20:59;12.63;;;4.17;;
5587;SDS011;2816;49.778;9.986;2023-02-01T09:23:30;10.90;;;4.00;;
5587;SDS011;2816;49.778;9.986;2023-02-01T09:25:58;7.00;;;2.93;;
5587;SDS011;2816;49.778;9.986;2023-02-01T09:28:25;7.27;;;2.83;;
5587;SDS011;2816;49.778;9.986;2023-02-01T09:30:54;6.10;;;2.80;;
5587;SDS011;2816;49.778;9.986;2023-02-01T09:33:22;10.30;;;2.93;;
5587;SDS011;2816;49.778;9.986;2023-02-01T09:35:56;17.00;;;4.37;;
5587;SDS011;2816;49.778;9.986;2023-02-01T09:38:23;13.10;;;3.80;;
5587;SDS011;2816;49.778;9.986;2023-02-01T09:40:52;18.00;;;3.70;;
5587;SDS011;2816;49.778;9.986;2023-02-01T09:43:22;12.70;;;3.40;;
5587;SDS011;2816;49.778;9.986;2023-02-01T09:45:59;24.40;;;4.53;;
5587;SDS011;2816;49.778;9.986;2023-02-01T09:48:34;9.40;;;3.43;;
5587;SDS011;2816;49.778;9.986;2023-02-01T09:51:10;8.20;;;3.33;;
5587;SDS011;2816;49.778;9.986;2023-02-01T09:53:41;12.13;;;2.80;;
5587;SDS011;2816;49.778;9.986;2023-02-01T09:56:12;7.20;;;2.90;;
5587;SDS011;2816;49.778;9.986;2023-02-01T09:58:44;8.83;;;2.47;;
5587;SDS011;2816;49.778;9.986;2023-02-01T10:01:16;7.97;;;2.70;;
5587;SDS011;2816;49.778;9.986;2023-02-01T10:03:46;8.23;;;2.30;;
5587;SDS011;2816;49.778;9.986;2023-02-01T10:06:26;8.30;;;2.47;;
5587;SDS011;2816;49.778;9.986;2023-02-01T10:09:11;13.47;;;2.87;;
5587;SDS011;2816;49.778;9.986;2023-02-01T10:11:47;10.93;;;3.10;;
5587;SDS011;2816;49.778;9.986;2023-02-01T10:14:36;4.40;;;2.30;;
5587;SDS011;2816;49.778;9.986;2023-02-01T10:17:25;7.90;;;3.17;;
5587;SDS011;2816;49.778;9.986;2023-02-01T10:20:04;5.13;;;2.33;;
5587;SDS011;2816;49.778;9.986;2023-02-01T10:22:41;13.30;;;3.67;;
5587;SDS011;2816;49.778;9.986;2023-02-01T10:25:13;11.93;;;2.73;;
5587;SDS011;2816;49.778;9.986;2023-02-01T10:27:48;6.03;;;2.40;;
5587;SDS011;2816;49.778;9.986;2023-02-01T10:30:18;5.97;;;2.40;;
5587;SDS011;2816;49.778;9.986;2023-02-01T10:32:47;5.10;;;2.30;;
5587;SDS011;2816;49.778;9.986;2023-02-01T10:35:18;18.07;;;3.27;;
5587;SDS011;2816;49.778;9.986;2023-02-01T10:37:51;8.83;;;2.57;;
5587;SDS011;2816;49.778;9.986;2023-02-01T10:40:19;8.90;;;2.57;;
5587;SDS011;2816;49.778;9.986;2023-02-01T10:42:48;13.53;;;2.33;;
5587;SDS011;2816;49.778;9.986;2023-02-01T10:45:17;8.37;;;2.87;;
5587;SDS011;2816;49.778;9.986;2023-02-01T10:47:47;11.77;;;3.27;;
5587;SDS011;2816;49.778;9.986;2023-02-01T10:50:21;8.60;;;2.40;;
5587;SDS011;2816;49.778;9.986;2023-02-01T10:53:01;7.63;;;2.70;;
5587;SDS011;2816;49.778;9.986;2023-02-01T10:55:33;14.43;;;2.47;;
5587;SDS011;2816;49.778;9.986;2023-02-01T10:58:05;10.47;;;2.80;;
5587;SDS011;2816;49.778;9.986;2023-02-01T11:00:44;8.10;;;2.67;;
5587;SDS011;2816;49.778;9.986;2023-02-01T11:03:21;12.57;;;3.40;;
5587;SDS011;2816;49.778;9.986;2023-02-01T11:05:58;11.50;;;2.40;;
5587;SDS011;2816;49.778;9.986;2023-02-01T11:08:26;15.43;;;3.57;;
5587;SDS011;2816;49.778;9.986;2023-02-01T11:10:57;12.67;;;2.70;;
5587;SDS011;2816;49.778;9.986;2023-02-01T11:13:27;8.50;;;2.60;;
5587;SDS011;2816;49.778;9.986;2023-02-01T11:15:57;12.13;;;3.10;;
5587;SDS011;2816;49.778;9.986;2023-02-01T11:18:25;6.47;;;2.50;;
5587;SDS011;2816;49.778;9.986;2023-02-01T11:20:54;9.43;;;2.43;;
5587;SDS011;2816;49.778;9.986;2023-02-01T11:23:21;9.20;;;2.37;;
5587;SDS011;2816;49.778;9.986;2023-02-01T11:25:52;8.10;;;2.50;;
5587;SDS011;2816;49.778;9.986;2023-02-01T11:28:21;7.80;;;2.20;;
5587;SDS011;2816;49.778;9.986;2023-02-01T11:30:49;10.87;;;2.63;;
5587;SDS011;2816;49.778;9.986;2023-02-01T11:33:20;12.03;;;2.90;;
5587;SDS011;2816;49.778;9.986;2023-02-01T11:35:54;6.37;;;2.57;;
5587;SDS011;2816;49.778;9.986;2023-02-01T11:38:25;7.63;;;2.77;;
5587;SDS011;2816;49.778;9.986;2023-02-01T11:40:55;7.13;;;2.03;;
5587;SDS011;2816;49.778;9.986;2023-02-01T11:43:38;3.90;;;2.10;;
5587;SDS011;2816;49.778;9.986;2023-02-01T11:46:18;9.73;;;2.20;;
5587;SDS011;2816;49.778;9.986;2023-02-01T11:48:50;10.50;;;2.53;;
5587;SDS011;2816;49.778;9.986;2023-02-01T11:51:21;6.50;;;2.10;;
5587;SDS011;2816;49.778;9.986;2023-02-01T11:54:01;6.00;;;2.33;;
5587;SDS011;2816;49.778;9.986;2023-02-01T11:56:45;10.10;;;2.73;;
5587;SDS011;2816;49.778;9.986;2023-02-01T11:59:23;3.93;;;1.70;;
5587;SDS011;2816;49.778;9.986;2023-02-01T12:02:12;3.83;;;1.63;;
5587;SDS011;2816;49.778;9.986;2023-02-01T12:05:03;7.00;;;2.20;;
5587;SDS011;2816;49.778;9.986;2023-02-01T12:08:02;8.43;;;2.63;;
5587;SDS011;2816;49.778;9.986;2023-02-01T12:10:43;5.57;;;1.67;;
5587;SDS011;2816;49.778;9.986;2023-02-01T12:13:23;8.30;;;2.63;;
5587;SDS011;2816;49.778;9.986;2023-02-01T12:16:02;10.80;;;2.40;;
5587;SDS011;2816;49.778;9.986;2023-02-01T12:18:50;10.47;;;2.07;;
5587;SDS011;2816;49.778;9.986;2023-02-01T12:21:33;9.47;;;2.20;;
5587;SDS011;2816;49.778;9.986;2023-02-01T12:27:20;7.73;;;2.43;;
5587;SDS011;2816;49.778;9.986;2023-02-01T12:30:07;7.60;;;1.73;;
5587;SDS011;2816;49.778;9.986;2023-02-01T12:32:52;13.13;;;2.93;;
5587;SDS011;2816;49.778;9.986;2023-02-01T12:35:44;12.23;;;2.80;;
5587;SDS011;2816;49.778;9.986;2023-02-01T12:38:24;12.60;;;2.77;;
5587;SDS011;2816;49.778;9.986;2023-02-01T12:41:05;19.53;;;3.00;;
5587;SDS011;2816;49.778;9.986;2023-02-01T12:43:40;9.50;;;2.63;;
5587;SDS011;2816;49.778;9.986;2023-02-01T12:46:16;16.73;;;2.37;;
5587;SDS011;2816;49.778;9.986;2023-02-01T12:48:49;5.33;;;1.50;;
5587;SDS011;2816;49.778;9.986;2023-02-01T12:51:24;6.43;;;2.17;;
5587;SDS011;2816;49.778;9.986;2023-02-01T12:53:55;7.70;;;1.97;;
5587;SDS011;2816;49.778;9.986;2023-02-01T12:56:28;4.97;;;1.70;;
5587;SDS011;2816;49.778;9.986;2023-02-01T12:59:01;6.00;;;2.60;;
5587;SDS011;2816;49.778;9.986;2023-02-01T13:01:34;11.47;;;2.57;;
5587;SDS011;2816;49.778;9.986;2023-02-01T13:04:04;5.57;;;1.63;;
5587;SDS011;2816;49.778;9.986;2023-02-01T13:06:37;7.77;;;2.30;;
5587;SDS011;2816;49.778;9.986;2023-02-01T13:09:09;7.60;;;1.90;;
5587;SDS011;2816;49.778;9.986;2023-02-01T13:11:46;3.30;;;2.10;;
5587;SDS011;2816;49.778;9.986;2023-02-01T13:14:25;6.73;;;2.23;;
5587;SDS011;2816;49.778;9.986;2023-02-01T13:17:02;9.70;;;2.60;;
5587;SDS011;2816;49.778;9.986;2023-02-01T13:19:34;9.30;;;2.70;;
5587;SDS011;2816;49.778;9.986;2023-02-01T13:22:10;12.07;;;2.17;;
5587;SDS011;2816;49.778;9.986;2023-02-01T13:24:40;11.13;;;2.10;;
5587;SDS011;2816;49.778;9.986;2023-02-01T13:27:11;8.07;;;2.70;;
5587;SDS011;2816;49.778;9.986;2023-02-01T13:29:40;5.13;;;2.00;;
5587;SDS011;2816;49.778;9.986;2023-02-01T13:35:13;6.50;;;2.23;;
5587;SDS011;2816;49.778;9.986;2023-02-01T13:37:57;6.17;;;2.03;;
5587;SDS011;2816;49.778;9.986;2023-02-01T13:41:05;11.77;;;2.40;;
5587;SDS011;2816;49.778;9.986;2023-02-01T13:43:42;7.53;;;2.20;;
5587;SDS011;2816;49.778;9.986;2023-02-01T13:46:13;7.80;;;2.17;;
5587;SDS011;2816;49.778;9.986;2023-02-01T13:48:47;6.20;;;2.50;;
5587;SDS011;2816;49.778;9.986;2023-02-01T13:51:16;10.10;;;2.47;;
5587;SDS011;2816;49.778;9.986;2023-02-01T13:53:56;5.13;;;2.10;;
5587;SDS011;2816;49.778;9.986;2023-02-01T13:56:23;5.87;;;2.13;;
5587;SDS011;2816;49.778;9.986;2023-02-01T13:58:51;7.00;;;2.10;;
5587;SDS011;2816;49.778;9.986;2023-02-01T14:01:32;9.00;;;2.30;;
5587;SDS011;2816;49.778;9.986;2023-02-01T14:04:04;4.57;;;2.10;;
5587;SDS011;2816;49.778;9.986;2023-02-01T14:06:42;10.57;;;2.43;;
5587;SDS011;2816;49.778;9.986;2023-02-01T14:09:18;9.33;;;2.50;;
5587;SDS011;2816;49.778;9.986;2023-02-01T14:11:57;5.47;;;2.13;;
5587;SDS011;2816;49.778;9.986;2023-02-01T14:14:45;13.63;;;2.37;;
5587;SDS011;2816;49.778;9.986;2023-02-01T14:23:16;8.47;;;2.37;;
5587;SDS011;2816;49.778;9.986;2023-02-01T14:26:08;10.83;;;2.60;;
5587;SDS011;2816;49.778;9.986;2023-02-01T14:28:39;14.13;;;3.10;;
5587;SDS011;2816;49.778;9.986;2023-02-01T14:31:26;6.30;;;2.37;;
5587;SDS011;2816;49.778;9.986;2023-02-01T14:34:09;7.13;;;2.40;;
5587;SDS011;2816;49.778;9.986;2023-02-01T14:36:43;6.97;;;2.73;;
5587;SDS011;2816;49.778;9.986;2023-02-01T14:39:22;7.20;;;2.30;;
5587;SDS011;2816;49.778;9.986;2023-02-01T14:41:56;4.93;;;2.07;;
5587;SDS011;2816;49.778;9.986;2023-02-01T14:44:27;7.40;;;1.97;;
5587;SDS011;2816;49.778;9.986;2023-02-01T14:47:06;10.23;;;2.20;;
5587;SDS011;2816;49.778;9.986;2023-02-01T14:49:54;3.80;;;1.93;;
5587;SDS011;2816;49.778;9.986;2023-02-01T14:52:59;9.57;;;2.47;;
5587;SDS011;2816;49.778;9.986;2023-02-01T14:55:50;6.40;;;2.40;;
5587;SDS011;2816;49.778;9.986;2023-02-01T14:58:22;17.33;;;2.97;;
5587;SDS011;2816;49.778;9.986;2023-02-01T15:00:58;8.30;;;2.23;;
5587;SDS011;2816;49.778;9.986;2023-02-01T15:03:41;13.63;;;3.23;;
5587;SDS011;2816;49.778;9.986;2023-02-01T15:06:23;6.03;;;2.30;;
5587;SDS011;2816;49.778;9.986;2023-02-01T15:08:54;11.83;;;2.90;;
5587;SDS011;2816;49.778;9.986;2023-02-01T15:11:25;9.73;;;2.43;;
5587;SDS011;2816;49.778;9.986;2023-02-01T15:13:52;7.20;;;2.20;;
5587;SDS011;2816;49.778;9.986;2023-02-01T15:16:21;14.77;;;2.57;;
5587;SDS011;2816;49.778;9.986;2023-02-01T15:18:50;7.50;;;2.67;;
5587;SDS011;2816;49.778;9.986;2023-02-01T15:21:42;6.83;;;2.23;;
5587;SDS011;2816;49.778;9.986;2023-02-01T15:24:14;12.27;;;2.20;;
5587;SDS011;2816;49.778;9.986;2023-02-01T15:26:46;11.87;;;2.57;;
5587;SDS011;2816;49.778;9.986;2023-02-01T15:29:13;6.10;;;2.17;;
5587;SDS011;2816;49.778;9.986;2023-02-01T15:31:42;9.90;;;2.30;;
5587;SDS011;2816;49.778;9.986;2023-02-01T15:34:10;6.30;;;2.07;;
5587;SDS011;2816;49.778;9.986;2023-02-01T15:36:38;13.23;;;3.90;;
5587;SDS011;2816;49.778;9.986;2023-02-01T15:39:19;7.27;;;2.13;;
5587;SDS011;2816;49.778;9.986;2023-02-01T15:41:52;7.20;;;2.30;;
5587;SDS011;2816;49.778;9.986;2023-02-01T15:47:08;12.20;;;3.20;;
5587;SDS011;2816;49.778;9.986;2023-02-01T15:49:40;10.60;;;3.10;;
5587;SDS011;2816;49.778;9.986;2023-02-01T15:52:21;12.27;;;2.60;;
5587;SDS011;2816;49.778;9.986;2023-02-01T15:54:53;11.53;;;2.37;;
5587;SDS011;2816;49.778;9.986;2023-02-01T15:57:25;3.90;;;1.90;;
5587;SDS011;2816;49.778;9.986;2023-02-01T15:59:56;8.43;;;2.27;;
5587;SDS011;2816;49.778;9.986;2023-02-01T16:02:25;9.10;;;2.67;;